sensor_id;sensor_type;location;lat;lon;timestamp;temperature;humidity
20288;DHT22;10303;51.960;8.372;2023-11-18T00:01:25;8.50;99.90
20288;DHT22;10303;51.960;8.372;2023-11-18T00:03:57;8.50;99.90
20288;DHT22;10303;51.960;8.372;2023-11-18T00:06:23;8.50;99.90
20288;DHT22;10303;51.960;8.372;2023-11-18T00:08:49;8.50;99.90
20288;DHT22;10303;51.960;8.372;2023-11-18T00:11:15;8.50;99.90
20288;DHT22;10303;51.960;8.372;2023-11-18T00:13:41;8.50;99.90
20288;DHT22;10303;51.960;8.372;2023-11-18T00:16:09;8.50;99.90
20288;DHT22;10303;51.960;8.372;2023-11-18T00:18:40;8.50;99.90
20288;DHT22;10303;51.960;8.372;2023-11-18T00:21:07;8.50;99.90
20288;DHT22;10303;51.960;8.372;2023-11-18T00:23:34;8.60;99.90
20288;DHT22;10303;51.960;8.372;2023-11-18T00:26:00;8.60;99.90
20288;DHT22;10303;51.960;8.372;2023-11-18T00:28:27;8.60;99.90
20288;DHT22;10303;51.960;8.372;2023-11-18T00:30:53;8.60;99.90
20288;DHT22;10303;51.960;8.372;2023-11-18T00:33:20;8.60;99.90
20288;DHT22;10303;51.960;8.372;2023-11-18T00:35:47;8.60;99.90
20288;DHT22;10303;51.960;8.372;2023-11-18T00:38:13;8.60;99.90
20288;DHT22;10303;51.960;8.372;2023-11-18T00:40:39;8.60;99.90
20288;DHT22;10303;51.960;8.372;2023-11-18T00:43:04;8.60;99.90
20288;DHT22;10303;51.960;8.372;2023-11-18T00:45:30;8.60;99.90
20288;DHT22;10303;51.960;8.372;2023-11-18T00:47:57;8.70;99.90
20288;DHT22;10303;51.960;8.372;2023-11-18T00:50:23;8.70;99.90
20288;DHT22;10303;51.960;8.372;2023-11-18T00:52:49;8.70;99.90
20288;DHT22;10303;51.960;8.372;2023-11-18T00:55:16;8.70;99.90
20288;DHT22;10303;51.960;8.372;2023-11-18T00:57:46;8.70;99.90
20288;DHT22;10303;51.960;8.372;2023-11-18T01:00:13;8.70;99.90
20288;DHT22;10303;51.960;8.372;2023-11-18T01:02:44;8.70;99.90
20288;DHT22;10303;51.960;8.372;2023-11-18T01:05:12;8.70;99.90
20288;DHT22;10303;51.960;8.372;2023-11-18T01:07:39;8.80;99.90
20288;DHT22;10303;51.960;8.372;2023-11-18T01:10:09;8.80;99.90
20288;DHT22;10303;51.960;8.372;2023-11-18T01:12:36;8.80;99.90
20288;DHT22;10303;51.960;8.372;2023-11-18T01:15:02;8.80;99.90
20288;DHT22;10303;51.960;8.372;2023-11-18T01:17:29;8.80;99.90
20288;DHT22;10303;51.960;8.372;2023-11-18T01:19:58;8.80;99.90
20288;DHT22;10303;51.960;8.372;2023-11-18T01:22:24;8.70;99.90
20288;DHT22;10303;51.960;8.372;2023-11-18T01:24:51;8.70;99.90
20288;DHT22;10303;51.960;8.372;2023-11-18T01:27:17;8.70;99.90
20288;DHT22;10303;51.960;8.372;2023-11-18T01:29:46;8.70;99.90
20288;DHT22;10303;51.960;8.372;2023-11-18T01:32:13;8.70;99.90
20288;DHT22;10303;51.960;8.372;2023-11-18T01:34:39;8.70;99.90
20288;DHT22;10303;51.960;8.372;2023-11-18T01:37:09;8.60;99.90
20288;DHT22;10303;51.960;8.372;2023-11-18T01:39:35;8.70;99.90
20288;DHT22;10303;51.960;8.372;2023-11-18T01:42:03;8.70;99.90
20288;DHT22;10303;51.960;8.372;2023-11-18T01:44:30;8.70;99.90
20288;DHT22;10303;51.960;8.372;2023-11-18T01:46:57;8.70;99.90
20288;DHT22;10303;51.960;8.372;2023-11-18T01:49:26;8.70;99.90
20288;DHT22;10303;51.960;8.372;2023-11-18T01:51:55;8.70;99.90
20288;DHT22;10303;51.960;8.372;2023-11-18T01:54:23;8.70;99.90
20288;DHT22;10303;51.960;8.372;2023-11-18T01:56:51;8.60;99.90
20288;DHT22;10303;51.960;8.372;2023-11-18T01:59:17;8.70;99.90
20288;DHT22;10303;51.960;8.372;2023-11-18T02:01:52;8.60;99.90
20288;DHT22;10303;51.960;8.372;2023-11-18T02:04:20;8.60;99.90
20288;DHT22;10303;51.960;8.372;2023-11-18T02:06:49;8.60;99.90
20288;DHT22;10303;51.960;8.372;2023-11-18T02:09:19;8.60;99.90
20288;DHT22;10303;51.960;8.372;2023-11-18T02:12:00;8.60;99.90
20288;DHT22;10303;51.960;8.372;2023-11-18T02:14:46;8.60;99.90
20288;DHT22;10303;51.960;8.372;2023-11-18T02:17:20;8.60;99.90
20288;DHT22;10303;51.960;8.372;2023-11-18T02:19:52;8.60;99.90
20288;DHT22;10303;51.960;8.372;2023-11-18T02:22:19;8.60;99.90
20288;DHT22;10303;51.960;8.372;2023-11-18T02:24:47;8.60;99.90
20288;DHT22;10303;51.960;8.372;2023-11-18T02:27:14;8.60;99.90
20288;DHT22;10303;51.960;8.372;2023-11-18T02:29:44;8.50;99.90
20288;DHT22;10303;51.960;8.372;2023-11-18T02:32:48;8.50;99.90
20288;DHT22;10303;51.960;8.372;2023-11-18T02:36:04;8.50;99.90
20288;DHT22;10303;51.960;8.372;2023-11-18T02:38:36;8.50;99.90
20288;DHT22;10303;51.960;8.372;2023-11-18T02:41:10;8.50;99.90
20288;DHT22;10303;51.960;8.372;2023-11-18T02:43:39;8.50;99.90
20288;DHT22;10303;51.960;8.372;2023-11-18T02:46:09;8.50;99.90
20288;DHT22;10303;51.960;8.372;2023-11-18T02:48:38;8.40;99.90
20288;DHT22;10303;51.960;8.372;2023-11-18T02:51:05;8.40;99.90
20288;DHT22;10303;51.960;8.372;2023-11-18T02:53:33;8.40;99.90
20288;DHT22;10303;51.960;8.372;2023-11-18T02:56:00;8.40;99.90
20288;DHT22;10303;51.960;8.372;2023-11-18T02:58:30;8.40;99.90
20288;DHT22;10303;51.960;8.372;2023-11-18T03:00:56;8.40;99.90
20288;DHT22;10303;51.960;8.372;2023-11-18T03:03:26;8.40;99.90
20288;DHT22;10303;51.960;8.372;2023-11-18T03:05:54;8.30;99.90
20288;DHT22;10303;51.960;8.372;2023-11-18T03:08:21;8.40;99.90
20288;DHT22;10303;51.960;8.372;2023-11-18T03:10:47;8.30;99.90
20288;DHT22;10303;51.960;8.372;2023-11-18T03:13:13;8.30;99.90
20288;DHT22;10303;51.960;8.372;2023-11-18T03:15:39;8.30;99.90
20288;DHT22;10303;51.960;8.372;2023-11-18T03:18:05;8.30;99.90
20288;DHT22;10303;51.960;8.372;2023-11-18T03:20:33;8.30;99.90
20288;DHT22;10303;51.960;8.372;2023-11-18T03:23:00;8.20;99.90
20288;DHT22;10303;51.960;8.372;2023-11-18T03:25:29;8.20;99.90
20288;DHT22;10303;51.960;8.372;2023-11-18T03:27:56;8.20;99.90
20288;DHT22;10303;51.960;8.372;2023-11-18T03:30:22;8.20;99.90
20288;DHT22;10303;51.960;8.372;2023-11-18T03:32:48;8.10;99.90
20288;DHT22;10303;51.960;8.372;2023-11-18T03:35:14;8.10;99.90
20288;DHT22;10303;51.960;8.372;2023-11-18T03:37:40;8.10;99.90
20288;DHT22;10303;51.960;8.372;2023-11-18T03:40:08;8.10;99.90
20288;DHT22;10303;51.960;8.372;2023-11-18T03:42:37;8.00;99.90
20288;DHT22;10303;51.960;8.372;2023-11-18T03:45:05;8.00;99.90
20288;DHT22;10303;51.960;8.372;2023-11-18T03:47:31;8.00;99.90
20288;DHT22;10303;51.960;8.372;2023-11-18T03:49:59;8.00;99.90
20288;DHT22;10303;51.960;8.372;2023-11-18T03:52:25;7.90;99.90
20288;DHT22;10303;51.960;8.372;2023-11-18T03:54:53;7.90;99.90
20288;DHT22;10303;51.960;8.372;2023-11-18T03:57:22;7.90;99.90
20288;DHT22;10303;51.960;8.372;2023-11-18T03:59:48;7.80;99.90
20288;DHT22;10303;51.960;8.372;2023-11-18T04:02:14;7.80;99.90
20288;DHT22;10303;51.960;8.372;2023-11-18T04:04:40;7.80;99.90
20288;DHT22;10303;51.960;8.372;2023-11-18T04:07:06;7.70;99.90
20288;DHT22;10303;51.960;8.372;2023-11-18T04:09:32;7.70;99.90
20288;DHT22;10303;51.960;8.372;2023-11-18T04:11:58;7.60;99.90
20288;DHT22;10303;51.960;8.372;2023-11-18T04:14:24;7.60;99.90
20288;DHT22;10303;51.960;8.372;2023-11-18T04:16:51;7.60;99.90
20288;DHT22;10303;51.960;8.372;2023-11-18T04:19:18;7.60;99.90
20288;DHT22;10303;51.960;8.372;2023-11-18T04:21:44;7.50;99.90
20288;DHT22;10303;51.960;8.372;2023-11-18T04:24:14;7.50;99.90
20288;DHT22;10303;51.960;8.372;2023-11-18T04:26:41;7.40;99.90
20288;DHT22;10303;51.960;8.372;2023-11-18T04:29:07;7.40;99.90
20288;DHT22;10303;51.960;8.372;2023-11-18T04:31:34;7.40;99.90
20288;DHT22;10303;51.960;8.372;2023-11-18T04:34:00;7.30;99.90
20288;DHT22;10303;51.960;8.372;2023-11-18T04:36:26;7.30;99.90
20288;DHT22;10303;51.960;8.372;2023-11-18T04:38:52;7.20;99.90
20288;DHT22;10303;51.960;8.372;2023-11-18T04:41:18;7.20;99.90
20288;DHT22;10303;51.960;8.372;2023-11-18T04:43:44;7.10;99.90
20288;DHT22;10303;51.960;8.372;2023-11-18T04:46:11;7.10;99.90
20288;DHT22;10303;51.960;8.372;2023-11-18T04:48:38;7.10;99.90
20288;DHT22;10303;51.960;8.372;2023-11-18T04:51:05;7.10;99.90
20288;DHT22;10303;51.960;8.372;2023-11-18T04:53:31;7.10;99.90
20288;DHT22;10303;51.960;8.372;2023-11-18T04:55:57;7.00;99.90
20288;DHT22;10303;51.960;8.372;2023-11-18T04:58:24;6.90;99.90
20288;DHT22;10303;51.960;8.372;2023-11-18T05:00:50;6.90;99.90
20288;DHT22;10303;51.960;8.372;2023-11-18T05:03:19;6.90;99.90
20288;DHT22;10303;51.960;8.372;2023-11-18T05:05:45;6.80;99.90
20288;DHT22;10303;51.960;8.372;2023-11-18T05:08:20;6.80;99.90
20288;DHT22;10303;51.960;8.372;2023-11-18T05:10:48;6.80;99.90
20288;DHT22;10303;51.960;8.372;2023-11-18T05:13:15;6.80;99.90
20288;DHT22;10303;51.960;8.372;2023-11-18T05:15:43;6.70;99.90
20288;DHT22;10303;51.960;8.372;2023-11-18T05:18:11;6.70;99.90
20288;DHT22;10303;51.960;8.372;2023-11-18T05:20:44;6.70;99.90
20288;DHT22;10303;51.960;8.372;2023-11-18T05:23:10;6.60;99.90
20288;DHT22;10303;51.960;8.372;2023-11-18T05:25:40;6.60;99.90
20288;DHT22;10303;51.960;8.372;2023-11-18T05:28:09;6.60;99.90
20288;DHT22;10303;51.960;8.372;2023-11-18T05:30:35;6.50;99.90
20288;DHT22;10303;51.960;8.372;2023-11-18T05:33:05;6.50;99.90
20288;DHT22;10303;51.960;8.372;2023-11-18T05:35:32;6.50;99.90
20288;DHT22;10303;51.960;8.372;2023-11-18T05:37:59;6.40;99.90
20288;DHT22;10303;51.960;8.372;2023-11-18T05:40:26;6.40;99.90
20288;DHT22;10303;51.960;8.372;2023-11-18T05:42:54;6.40;99.90
20288;DHT22;10303;51.960;8.372;2023-11-18T05:45:21;6.40;99.90
20288;DHT22;10303;51.960;8.372;2023-11-18T05:47:56;6.40;99.90
20288;DHT22;10303;51.960;8.372;2023-11-18T05:50:23;6.50;99.90
20288;DHT22;10303;51.960;8.372;2023-11-18T05:52:50;6.30;99.90
20288;DHT22;10303;51.960;8.372;2023-11-18T05:55:18;6.30;99.90
20288;DHT22;10303;51.960;8.372;2023-11-18T05:57:44;6.30;99.90
20288;DHT22;10303;51.960;8.372;2023-11-18T06:00:14;6.30;99.90
20288;DHT22;10303;51.960;8.372;2023-11-18T06:02:41;6.30;99.90
20288;DHT22;10303;51.960;8.372;2023-11-18T06:05:08;6.20;99.90
20288;DHT22;10303;51.960;8.372;2023-11-18T06:07:35;6.30;99.90
20288;DHT22;10303;51.960;8.372;2023-11-18T06:10:02;6.20;99.90
20288;DHT22;10303;51.960;8.372;2023-11-18T06:12:31;6.20;99.90
20288;DHT22;10303;51.960;8.372;2023-11-18T06:14:57;6.30;99.90
20288;DHT22;10303;51.960;8.372;2023-11-18T06:17:24;6.20;99.90
20288;DHT22;10303;51.960;8.372;2023-11-18T06:19:49;6.10;99.90
20288;DHT22;10303;51.960;8.372;2023-11-18T06:22:15;6.20;99.90
20288;DHT22;10303;51.960;8.372;2023-11-18T06:24:41;6.10;99.90
20288;DHT22;10303;51.960;8.372;2023-11-18T06:27:08;6.10;99.90
20288;DHT22;10303;51.960;8.372;2023-11-18T06:29:35;6.10;99.90
20288;DHT22;10303;51.960;8.372;2023-11-18T06:32:01;6.10;99.90
20288;DHT22;10303;51.960;8.372;2023-11-18T06:34:27;6.10;99.90
20288;DHT22;10303;51.960;8.372;2023-11-18T06:36:53;6.10;99.90
20288;DHT22;10303;51.960;8.372;2023-11-18T06:39:21;6.10;99.90
20288;DHT22;10303;51.960;8.372;2023-11-18T06:41:55;6.10;99.90
20288;DHT22;10303;51.960;8.372;2023-11-18T06:44:23;6.10;99.90
20288;DHT22;10303;51.960;8.372;2023-11-18T06:46:49;6.10;99.90
20288;DHT22;10303;51.960;8.372;2023-11-18T06:49:17;6.10;99.90
20288;DHT22;10303;51.960;8.372;2023-11-18T06:51:44;6.10;99.90
20288;DHT22;10303;51.960;8.372;2023-11-18T06:54:10;6.20;99.90
20288;DHT22;10303;51.960;8.372;2023-11-18T06:56:37;6.10;99.90
20288;DHT22;10303;51.960;8.372;2023-11-18T06:59:05;6.20;99.90
20288;DHT22;10303;51.960;8.372;2023-11-18T07:01:36;6.20;99.90
20288;DHT22;10303;51.960;8.372;2023-11-18T07:04:02;6.20;99.90
20288;DHT22;10303;51.960;8.372;2023-11-18T07:06:28;6.20;99.90
20288;DHT22;10303;51.960;8.372;2023-11-18T07:08:55;6.20;99.90
20288;DHT22;10303;51.960;8.372;2023-11-18T07:11:25;6.20;99.90
20288;DHT22;10303;51.960;8.372;2023-11-18T07:13:52;6.20;99.90
20288;DHT22;10303;51.960;8.372;2023-11-18T07:16:25;6.30;99.90
20288;DHT22;10303;51.960;8.372;2023-11-18T07:18:51;6.30;99.90
20288;DHT22;10303;51.960;8.372;2023-11-18T07:21:18;6.30;99.90
20288;DHT22;10303;51.960;8.372;2023-11-18T07:23:45;6.30;99.90
20288;DHT22;10303;51.960;8.372;2023-11-18T07:26:11;6.30;99.90
20288;DHT22;10303;51.960;8.372;2023-11-18T07:28:40;6.30;99.90
20288;DHT22;10303;51.960;8.372;2023-11-18T07:31:07;6.30;99.90
20288;DHT22;10303;51.960;8.372;2023-11-18T07:33:33;6.30;99.90
20288;DHT22;10303;51.960;8.372;2023-11-18T07:35:59;6.30;99.90
20288;DHT22;10303;51.960;8.372;2023-11-18T07:38:26;6.30;99.90
20288;DHT22;10303;51.960;8.372;2023-11-18T07:40:53;6.30;99.90
20288;DHT22;10303;51.960;8.372;2023-11-18T07:43:22;6.30;99.90
20288;DHT22;10303;51.960;8.372;2023-11-18T07:45:48;6.40;99.90
20288;DHT22;10303;51.960;8.372;2023-11-18T07:48:16;6.40;99.90
20288;DHT22;10303;51.960;8.372;2023-11-18T07:50:43;6.40;99.90
20288;DHT22;10303;51.960;8.372;2023-11-18T07:53:10;6.40;99.90
20288;DHT22;10303;51.960;8.372;2023-11-18T07:55:36;6.40;99.90
20288;DHT22;10303;51.960;8.372;2023-11-18T07:58:09;6.40;99.90
20288;DHT22;10303;51.960;8.372;2023-11-18T08:00:39;6.40;99.90
20288;DHT22;10303;51.960;8.372;2023-11-18T08:03:06;6.50;99.90
20288;DHT22;10303;51.960;8.372;2023-11-18T08:05:41;6.50;99.90
20288;DHT22;10303;51.960;8.372;2023-11-18T08:08:12;6.50;99.90
20288;DHT22;10303;51.960;8.372;2023-11-18T08:10:40;6.60;99.90
20288;DHT22;10303;51.960;8.372;2023-11-18T08:13:08;6.60;99.90
20288;DHT22;10303;51.960;8.372;2023-11-18T08:15:38;6.60;99.90
20288;DHT22;10303;51.960;8.372;2023-11-18T08:18:10;6.60;99.90
20288;DHT22;10303;51.960;8.372;2023-11-18T08:20:37;6.70;99.90
20288;DHT22;10303;51.960;8.372;2023-11-18T08:23:03;6.70;99.90
20288;DHT22;10303;51.960;8.372;2023-11-18T08:25:32;6.70;99.90
20288;DHT22;10303;51.960;8.372;2023-11-18T08:28:00;6.80;99.90
20288;DHT22;10303;51.960;8.372;2023-11-18T08:30:26;6.90;99.90
20288;DHT22;10303;51.960;8.372;2023-11-18T08:32:53;6.90;99.90
20288;DHT22;10303;51.960;8.372;2023-11-18T08:35:19;7.00;99.90
20288;DHT22;10303;51.960;8.372;2023-11-18T08:37:46;7.00;99.90
20288;DHT22;10303;51.960;8.372;2023-11-18T08:40:14;7.10;99.90
20288;DHT22;10303;51.960;8.372;2023-11-18T08:42:52;7.20;99.90
20288;DHT22;10303;51.960;8.372;2023-11-18T08:45:22;7.20;99.90
20288;DHT22;10303;51.960;8.372;2023-11-18T08:47:56;7.30;99.90
20288;DHT22;10303;51.960;8.372;2023-11-18T08:50:23;7.40;99.90
20288;DHT22;10303;51.960;8.372;2023-11-18T08:52:51;7.40;99.90
20288;DHT22;10303;51.960;8.372;2023-11-18T08:55:29;7.60;99.90
20288;DHT22;10303;51.960;8.372;2023-11-18T08:58:08;7.70;99.90
20288;DHT22;10303;51.960;8.372;2023-11-18T09:00:50;7.90;99.90
20288;DHT22;10303;51.960;8.372;2023-11-18T09:03:19;8.00;99.90
20288;DHT22;10303;51.960;8.372;2023-11-18T09:05:58;8.20;99.90
20288;DHT22;10303;51.960;8.372;2023-11-18T09:08:34;8.30;99.90
20288;DHT22;10303;51.960;8.372;2023-11-18T09:11:07;8.40;99.90
20288;DHT22;10303;51.960;8.372;2023-11-18T09:13:42;8.40;99.90
20288;DHT22;10303;51.960;8.372;2023-11-18T09:16:11;8.50;99.90
20288;DHT22;10303;51.960;8.372;2023-11-18T09:18:42;8.60;99.90
20288;DHT22;10303;51.960;8.372;2023-11-18T09:21:14;8.60;99.90
20288;DHT22;10303;51.960;8.372;2023-11-18T09:23:41;8.70;99.90
20288;DHT22;10303;51.960;8.372;2023-11-18T09:26:08;8.80;99.90
20288;DHT22;10303;51.960;8.372;2023-11-18T09:28:37;8.80;99.90
20288;DHT22;10303;51.960;8.372;2023-11-18T09:31:04;8.80;99.90
20288;DHT22;10303;51.960;8.372;2023-11-18T09:33:32;8.90;99.90
20288;DHT22;10303;51.960;8.372;2023-11-18T09:36:03;8.90;99.90
20288;DHT22;10303;51.960;8.372;2023-11-18T09:38:36;9.00;99.90
20288;DHT22;10303;51.960;8.372;2023-11-18T09:41:09;9.00;99.90
20288;DHT22;10303;51.960;8.372;2023-11-18T09:43:40;9.10;99.90
20288;DHT22;10303;51.960;8.372;2023-11-18T09:46:18;9.10;99.90
20288;DHT22;10303;51.960;8.372;2023-11-18T09:48:57;9.20;99.90
20288;DHT22;10303;51.960;8.372;2023-11-18T09:51:42;9.20;99.90
20288;DHT22;10303;51.960;8.372;2023-11-18T10:00:07;9.40;99.90
20288;DHT22;10303;51.960;8.372;2023-11-18T10:02:49;9.40;99.90
20288;DHT22;10303;51.960;8.372;2023-11-18T10:05:22;9.40;99.90
20288;DHT22;10303;51.960;8.372;2023-11-18T10:07:52;9.50;99.90
20288;DHT22;10303;51.960;8.372;2023-11-18T10:10:19;9.50;99.90
20288;DHT22;10303;51.960;8.372;2023-11-18T10:12:47;9.50;99.90
20288;DHT22;10303;51.960;8.372;2023-11-18T10:15:19;9.50;99.90
20288;DHT22;10303;51.960;8.372;2023-11-18T10:17:50;9.60;99.90
20288;DHT22;10303;51.960;8.372;2023-11-18T10:20:45;9.60;99.90
20288;DHT22;10303;51.960;8.372;2023-11-18T10:23:14;9.70;99.90
20288;DHT22;10303;51.960;8.372;2023-11-18T10:25:53;9.70;99.90
20288;DHT22;10303;51.960;8.372;2023-11-18T10:28:31;9.80;99.90
20288;DHT22;10303;51.960;8.372;2023-11-18T10:31:06;9.80;99.90
20288;DHT22;10303;51.960;8.372;2023-11-18T10:33:39;9.80;99.90
20288;DHT22;10303;51.960;8.372;2023-11-18T10:36:22;9.90;99.90
20288;DHT22;10303;51.960;8.372;2023-11-18T10:38:50;10.00;99.90
20288;DHT22;10303;51.960;8.372;2023-11-18T10:41:21;10.00;99.90
20288;DHT22;10303;51.960;8.372;2023-11-18T10:43:47;10.00;99.90
20288;DHT22;10303;51.960;8.372;2023-11-18T10:46:16;10.10;99.90
20288;DHT22;10303;51.960;8.372;2023-11-18T10:48:50;10.20;99.90
20288;DHT22;10303;51.960;8.372;2023-11-18T10:51:20;10.30;99.90
20288;DHT22;10303;51.960;8.372;2023-11-18T10:53:51;10.30;99.90
20288;DHT22;10303;51.960;8.372;2023-11-18T10:56:24;10.50;99.90
20288;DHT22;10303;51.960;8.372;2023-11-18T10:59:05;10.50;99.90
20288;DHT22;10303;51.960;8.372;2023-11-18T11:01:37;10.70;99.90
20288;DHT22;10303;51.960;8.372;2023-11-18T11:04:10;10.80;99.90
20288;DHT22;10303;51.960;8.372;2023-11-18T11:06:46;10.90;99.90
20288;DHT22;10303;51.960;8.372;2023-11-18T11:09:22;11.00;99.90
20288;DHT22;10303;51.960;8.372;2023-11-18T11:11:54;11.10;99.90
20288;DHT22;10303;51.960;8.372;2023-11-18T11:14:34;11.20;99.90
20288;DHT22;10303;51.960;8.372;2023-11-18T11:17:07;11.20;99.90
20288;DHT22;10303;51.960;8.372;2023-11-18T11:19:53;11.30;99.90
20288;DHT22;10303;51.960;8.372;2023-11-18T11:22:38;11.30;99.90
20288;DHT22;10303;51.960;8.372;2023-11-18T11:25:43;11.40;99.90
20288;DHT22;10303;51.960;8.372;2023-11-18T11:28:32;11.40;99.90
20288;DHT22;10303;51.960;8.372;2023-11-18T11:31:20;11.50;99.90
20288;DHT22;10303;51.960;8.372;2023-11-18T11:33:56;11.50;99.90
20288;DHT22;10303;51.960;8.372;2023-11-18T11:36:37;11.50;99.90
20288;DHT22;10303;51.960;8.372;2023-11-18T11:39:17;11.50;99.90
20288;DHT22;10303;51.960;8.372;2023-11-18T11:41:51;11.60;99.90
20288;DHT22;10303;51.960;8.372;2023-11-18T11:44:20;11.60;99.90
20288;DHT22;10303;51.960;8.372;2023-11-18T11:46:47;11.60;99.90
20288;DHT22;10303;51.960;8.372;2023-11-18T11:49:22;11.60;99.90
20288;DHT22;10303;51.960;8.372;2023-11-18T11:55:05;11.70;99.90
20288;DHT22;10303;51.960;8.372;2023-11-18T11:57:39;11.70;99.90
20288;DHT22;10303;51.960;8.372;2023-11-18T12:00:11;11.70;99.90
20288;DHT22;10303;51.960;8.372;2023-11-18T12:02:52;11.70;99.90
20288;DHT22;10303;51.960;8.372;2023-11-18T12:05:23;11.70;99.90
20288;DHT22;10303;51.960;8.372;2023-11-18T12:07:55;11.70;99.90
20288;DHT22;10303;51.960;8.372;2023-11-18T12:10:26;11.80;99.90
20288;DHT22;10303;51.960;8.372;2023-11-18T12:13:10;11.80;99.90
20288;DHT22;10303;51.960;8.372;2023-11-18T12:15:52;11.80;99.90
20288;DHT22;10303;51.960;8.372;2023-11-18T12:18:20;11.90;99.90
20288;DHT22;10303;51.960;8.372;2023-11-18T12:20:47;11.90;99.90
20288;DHT22;10303;51.960;8.372;2023-11-18T12:23:14;11.90;99.90
20288;DHT22;10303;51.960;8.372;2023-11-18T12:25:47;11.90;99.90
20288;DHT22;10303;51.960;8.372;2023-11-18T12:28:31;11.90;99.90
20288;DHT22;10303;51.960;8.372;2023-11-18T12:31:02;11.90;99.90
20288;DHT22;10303;51.960;8.372;2023-11-18T12:36:29;11.90;99.90
20288;DHT22;10303;51.960;8.372;2023-11-18T12:42:04;12.00;99.90
20288;DHT22;10303;51.960;8.372;2023-11-18T12:47:48;11.90;99.90
20288;DHT22;10303;51.960;8.372;2023-11-18T12:50:18;12.00;99.90
20288;DHT22;10303;51.960;8.372;2023-11-18T12:52:53;12.00;99.90
20288;DHT22;10303;51.960;8.372;2023-11-18T12:55:20;12.00;99.90
20288;DHT22;10303;51.960;8.372;2023-11-18T12:57:47;12.00;99.90
20288;DHT22;10303;51.960;8.372;2023-11-18T13:00:17;12.00;99.90
20288;DHT22;10303;51.960;8.372;2023-11-18T13:02:54;12.00;99.90
20288;DHT22;10303;51.960;8.372;2023-11-18T13:05:20;12.00;99.90
20288;DHT22;10303;51.960;8.372;2023-11-18T13:07:46;12.00;99.90
20288;DHT22;10303;51.960;8.372;2023-11-18T13:10:15;12.00;99.90
20288;DHT22;10303;51.960;8.372;2023-11-18T13:12:43;12.00;99.90
20288;DHT22;10303;51.960;8.372;2023-11-18T13:15:10;12.00;99.90
20288;DHT22;10303;51.960;8.372;2023-11-18T13:17:37;12.00;99.90
20288;DHT22;10303;51.960;8.372;2023-11-18T13:20:13;12.00;99.90
20288;DHT22;10303;51.960;8.372;2023-11-18T13:22:42;12.00;99.90
20288;DHT22;10303;51.960;8.372;2023-11-18T13:25:08;12.00;99.90
20288;DHT22;10303;51.960;8.372;2023-11-18T13:27:35;12.00;99.90
20288;DHT22;10303;51.960;8.372;2023-11-18T13:30:01;11.90;99.90
20288;DHT22;10303;51.960;8.372;2023-11-18T13:32:29;11.90;99.90
20288;DHT22;10303;51.960;8.372;2023-11-18T13:34:55;11.90;99.90
20288;DHT22;10303;51.960;8.372;2023-11-18T13:37:22;11.90;99.90
20288;DHT22;10303;51.960;8.372;2023-11-18T13:39:54;11.90;99.90
20288;DHT22;10303;51.960;8.372;2023-11-18T13:42:26;11.80;99.90
20288;DHT22;10303;51.960;8.372;2023-11-18T13:44:58;11.80;99.90
20288;DHT22;10303;51.960;8.372;2023-11-18T13:47:37;11.80;99.90
20288;DHT22;10303;51.960;8.372;2023-11-18T13:50:07;11.80;99.90
20288;DHT22;10303;51.960;8.372;2023-11-18T13:52:34;11.80;99.90
20288;DHT22;10303;51.960;8.372;2023-11-18T13:55:01;11.80;99.90
20288;DHT22;10303;51.960;8.372;2023-11-18T13:57:31;11.70;99.90
20288;DHT22;10303;51.960;8.372;2023-11-18T13:59:57;11.70;99.90
20288;DHT22;10303;51.960;8.372;2023-11-18T14:02:24;11.60;99.90
20288;DHT22;10303;51.960;8.372;2023-11-18T14:04:50;11.60;99.90
20288;DHT22;10303;51.960;8.372;2023-11-18T14:07:17;11.60;99.90
20288;DHT22;10303;51.960;8.372;2023-11-18T14:09:43;11.60;99.90
20288;DHT22;10303;51.960;8.372;2023-11-18T14:12:12;11.60;99.90
20288;DHT22;10303;51.960;8.372;2023-11-18T14:14:39;11.50;99.90
20288;DHT22;10303;51.960;8.372;2023-11-18T14:17:06;11.50;99.90
20288;DHT22;10303;51.960;8.372;2023-11-18T14:19:32;11.50;99.90
20288;DHT22;10303;51.960;8.372;2023-11-18T14:22:03;11.40;99.90
20288;DHT22;10303;51.960;8.372;2023-11-18T14:24:35;11.40;99.90
20288;DHT22;10303;51.960;8.372;2023-11-18T14:27:01;11.30;99.90
20288;DHT22;10303;51.960;8.372;2023-11-18T14:29:27;11.30;99.90
20288;DHT22;10303;51.960;8.372;2023-11-18T14:31:53;11.20;99.90
20288;DHT22;10303;51.960;8.372;2023-11-18T14:34:20;11.20;99.90
20288;DHT22;10303;51.960;8.372;2023-11-18T14:36:46;11.10;99.90
20288;DHT22;10303;51.960;8.372;2023-11-18T14:39:12;11.10;99.90
20288;DHT22;10303;51.960;8.372;2023-11-18T14:41:44;11.10;99.90
20288;DHT22;10303;51.960;8.372;2023-11-18T14:44:11;11.00;99.90
20288;DHT22;10303;51.960;8.372;2023-11-18T14:46:37;11.00;99.90
20288;DHT22;10303;51.960;8.372;2023-11-18T14:49:06;11.00;99.90
20288;DHT22;10303;51.960;8.372;2023-11-18T14:51:33;10.90;99.90
20288;DHT22;10303;51.960;8.372;2023-11-18T14:53:59;10.90;99.90
20288;DHT22;10303;51.960;8.372;2023-11-18T14:56:25;10.90;99.90
20288;DHT22;10303;51.960;8.372;2023-11-18T14:58:51;10.80;99.90
20288;DHT22;10303;51.960;8.372;2023-11-18T15:01:17;10.80;99.90
20288;DHT22;10303;51.960;8.372;2023-11-18T15:03:46;10.80;99.90
20288;DHT22;10303;51.960;8.372;2023-11-18T15:06:12;10.70;99.90
20288;DHT22;10303;51.960;8.372;2023-11-18T15:08:38;10.70;99.90
20288;DHT22;10303;51.960;8.372;2023-11-18T15:11:06;10.60;99.90
20288;DHT22;10303;51.960;8.372;2023-11-18T15:13:34;10.60;99.90
20288;DHT22;10303;51.960;8.372;2023-11-18T15:16:00;10.50;99.90
20288;DHT22;10303;51.960;8.372;2023-11-18T15:18:26;10.50;99.90
20288;DHT22;10303;51.960;8.372;2023-11-18T15:20:53;10.50;99.90
20288;DHT22;10303;51.960;8.372;2023-11-18T15:23:22;10.40;99.90
20288;DHT22;10303;51.960;8.372;2023-11-18T15:25:48;10.40;99.90
20288;DHT22;10303;51.960;8.372;2023-11-18T15:28:16;10.40;99.90
20288;DHT22;10303;51.960;8.372;2023-11-18T15:30:44;10.40;99.90
20288;DHT22;10303;51.960;8.372;2023-11-18T15:33:10;10.30;99.90
20288;DHT22;10303;51.960;8.372;2023-11-18T15:35:39;10.30;99.90
20288;DHT22;10303;51.960;8.372;2023-11-18T15:38:08;10.30;99.90
20288;DHT22;10303;51.960;8.372;2023-11-18T15:40:36;10.30;99.90
20288;DHT22;10303;51.960;8.372;2023-11-18T15:43:04;10.30;99.90
20288;DHT22;10303;51.960;8.372;2023-11-18T15:45:34;10.30;99.90
20288;DHT22;10303;51.960;8.372;2023-11-18T15:48:00;10.30;99.90
20288;DHT22;10303;51.960;8.372;2023-11-18T15:50:31;10.20;99.90
20288;DHT22;10303;51.960;8.372;2023-11-18T15:53:03;10.20;99.90
20288;DHT22;10303;51.960;8.372;2023-11-18T15:55:31;10.20;99.90
20288;DHT22;10303;51.960;8.372;2023-11-18T15:57:58;10.10;99.90
20288;DHT22;10303;51.960;8.372;2023-11-18T16:00:26;10.10;99.90
20288;DHT22;10303;51.960;8.372;2023-11-18T16:02:53;10.10;99.90
20288;DHT22;10303;51.960;8.372;2023-11-18T16:05:22;10.10;99.90
20288;DHT22;10303;51.960;8.372;2023-11-18T16:07:51;10.10;99.90
20288;DHT22;10303;51.960;8.372;2023-11-18T16:10:20;10.10;99.90
20288;DHT22;10303;51.960;8.372;2023-11-18T16:12:48;10.10;99.90